Aérodrome :
LOGIN :

S'inscrire | Disclaimer

   EN    FR    IT 

 










Légende :    VFR   VFR Marginal   IFR   IFR Intensif   IFR Très Intensif
Visi : 
Plafond : 
>= 8 km
>= 3000ft
5 à 8 km
1000 à 3000 ft
1500m à 5 km
500 à 1000 ft
800 à 1500m
200 à 500 ft
< 800m
< 200 ft
Symboles :   Orages  Brouillard  Fortes neiges  Fortes précipitations  Vent > 20 kt
SIGMETs :   Divers  Orages  Givrage  Turbulence  Onde Orograph.  Cendres Volcan.






- Altitude de l'aérodrome : 396 ft


LFOZ - Orléans St Denis

DERNIER METAR :
  • 281000Z AUTO 16010KT CAVOK 06/01 Q1018

METARs EXPIRÉS :
  • 280930Z AUTO 16009KT CAVOK 05/01 Q1018
  • 280900Z AUTO 15007KT 130V190 CAVOK 04/01 Q1019
  • 280830Z AUTO 16007KT CAVOK 04/01 Q1019
  • 280800Z AUTO 15008KT CAVOK 03/01 Q1019
  • 280730Z AUTO 16007KT CAVOK 02/01 Q1019

TAF N/A



MET'MAP, la Météo Aéronautique d'un coup d'oeil ! - Copyright ORBIFLY Décembre 2007 - Disclaimer

ORBIFLY MET'MAP TEAM :

Programmation & Développement : Alexandra Zaïnal
Sur une idée originale de : Baudouin d'Aumeries
Assistance à la programmation : Marc-Olivier Méhu
Soutien technique & logistique : Manuel Goepfert

Contact : metmap@orbifly.com




SOURCES & CREDITS :

   NOAA